sensor_id;sensor_type;location;lat;lon;timestamp;temperature;humidity
11617;DHT22;5864;52.998;9.068;2023-01-20T00:00:16;0.80;99.90
11617;DHT22;5864;52.998;9.068;2023-01-20T00:02:44;0.80;99.90
11617;DHT22;5864;52.998;9.068;2023-01-20T00:05:11;0.80;99.90
11617;DHT22;5864;52.998;9.068;2023-01-20T00:07:39;0.80;99.90
11617;DHT22;5864;52.998;9.068;2023-01-20T00:10:08;0.80;99.90
11617;DHT22;5864;52.998;9.068;2023-01-20T00:12:35;0.80;99.90
11617;DHT22;5864;52.998;9.068;2023-01-20T00:15:04;0.80;99.90
11617;DHT22;5864;52.998;9.068;2023-01-20T00:17:33;0.80;99.90
11617;DHT22;5864;52.998;9.068;2023-01-20T00:20:01;0.80;99.90
11617;DHT22;5864;52.998;9.068;2023-01-20T00:22:29;0.80;99.90
11617;DHT22;5864;52.998;9.068;2023-01-20T00:24:57;0.80;99.90
11617;DHT22;5864;52.998;9.068;2023-01-20T00:27:24;0.80;99.90
11617;DHT22;5864;52.998;9.068;2023-01-20T00:29:51;0.80;99.90
11617;DHT22;5864;52.998;9.068;2023-01-20T00:32:19;0.90;99.90
11617;DHT22;5864;52.998;9.068;2023-01-20T00:34:48;0.90;99.90
11617;DHT22;5864;52.998;9.068;2023-01-20T00:37:15;0.80;99.90
11617;DHT22;5864;52.998;9.068;2023-01-20T00:39:43;0.80;99.90
11617;DHT22;5864;52.998;9.068;2023-01-20T00:42:10;0.90;99.90
11617;DHT22;5864;52.998;9.068;2023-01-20T00:44:38;0.90;99.90
11617;DHT22;5864;52.998;9.068;2023-01-20T00:47:06;0.80;99.90
11617;DHT22;5864;52.998;9.068;2023-01-20T00:49:33;0.80;99.90
11617;DHT22;5864;52.998;9.068;2023-01-20T00:52:02;0.70;99.90
11617;DHT22;5864;52.998;9.068;2023-01-20T00:54:29;0.70;99.90
11617;DHT22;5864;52.998;9.068;2023-01-20T00:56:57;0.80;99.90
11617;DHT22;5864;52.998;9.068;2023-01-20T00:59:25;0.80;99.90
11617;DHT22;5864;52.998;9.068;2023-01-20T01:01:52;0.80;99.90
11617;DHT22;5864;52.998;9.068;2023-01-20T01:04:20;0.80;99.90
11617;DHT22;5864;52.998;9.068;2023-01-20T01:06:49;0.80;99.90
11617;DHT22;5864;52.998;9.068;2023-01-20T01:09:18;0.70;99.90
11617;DHT22;5864;52.998;9.068;2023-01-20T01:11:46;0.70;99.90
11617;DHT22;5864;52.998;9.068;2023-01-20T01:14:14;0.80;99.90
11617;DHT22;5864;52.998;9.068;2023-01-20T01:16:42;0.80;99.90
11617;DHT22;5864;52.998;9.068;2023-01-20T01:19:09;0.90;99.90
11617;DHT22;5864;52.998;9.068;2023-01-20T01:21:37;0.90;99.90
11617;DHT22;5864;52.998;9.068;2023-01-20T01:24:05;1.00;99.90
11617;DHT22;5864;52.998;9.068;2023-01-20T01:26:34;1.00;99.90
11617;DHT22;5864;52.998;9.068;2023-01-20T01:29:01;1.00;99.90
11617;DHT22;5864;52.998;9.068;2023-01-20T01:31:28;1.00;99.90
11617;DHT22;5864;52.998;9.068;2023-01-20T01:33:56;1.00;99.90
11617;DHT22;5864;52.998;9.068;2023-01-20T01:36:23;1.10;99.90
11617;DHT22;5864;52.998;9.068;2023-01-20T01:38:51;1.10;99.90
11617;DHT22;5864;52.998;9.068;2023-01-20T01:41:18;1.10;99.90
11617;DHT22;5864;52.998;9.068;2023-01-20T01:44:03;1.10;99.90
11617;DHT22;5864;52.998;9.068;2023-01-20T01:46:31;1.10;99.90
11617;DHT22;5864;52.998;9.068;2023-01-20T01:49:00;1.00;99.90
11617;DHT22;5864;52.998;9.068;2023-01-20T01:51:33;1.00;99.90
11617;DHT22;5864;52.998;9.068;2023-01-20T01:54:04;1.00;99.90
11617;DHT22;5864;52.998;9.068;2023-01-20T01:56:33;1.00;99.90
11617;DHT22;5864;52.998;9.068;2023-01-20T01:59:03;1.10;99.90
11617;DHT22;5864;52.998;9.068;2023-01-20T02:01:32;1.10;99.90
11617;DHT22;5864;52.998;9.068;2023-01-20T02:04:04;1.10;99.90
11617;DHT22;5864;52.998;9.068;2023-01-20T02:06:35;1.10;99.90
11617;DHT22;5864;52.998;9.068;2023-01-20T02:09:04;1.10;99.90
11617;DHT22;5864;52.998;9.068;2023-01-20T02:11:36;1.20;99.90
11617;DHT22;5864;52.998;9.068;2023-01-20T02:14:07;1.20;99.90
11617;DHT22;5864;52.998;9.068;2023-01-20T02:16:43;0.40;99.90
11617;DHT22;5864;52.998;9.068;2023-01-20T02:22:16;1.20;99.90
11617;DHT22;5864;52.998;9.068;2023-01-20T02:28:22;1.20;99.90
11617;DHT22;5864;52.998;9.068;2023-01-20T02:33:56;1.30;99.90
11617;DHT22;5864;52.998;9.068;2023-01-20T02:36:31;1.30;99.90
11617;DHT22;5864;52.998;9.068;2023-01-20T02:39:02;1.30;99.90
11617;DHT22;5864;52.998;9.068;2023-01-20T02:41:36;1.30;99.90
11617;DHT22;5864;52.998;9.068;2023-01-20T02:44:10;1.30;99.90
11617;DHT22;5864;52.998;9.068;2023-01-20T02:46:47;1.30;99.90
11617;DHT22;5864;52.998;9.068;2023-01-20T02:49:22;1.20;99.90
11617;DHT22;5864;52.998;9.068;2023-01-20T02:51:55;1.30;99.90
11617;DHT22;5864;52.998;9.068;2023-01-20T02:54:26;1.30;99.90
11617;DHT22;5864;52.998;9.068;2023-01-20T02:56:56;1.20;99.90
11617;DHT22;5864;52.998;9.068;2023-01-20T02:59:27;1.30;99.90
11617;DHT22;5864;52.998;9.068;2023-01-20T03:01:59;1.30;99.90
11617;DHT22;5864;52.998;9.068;2023-01-20T03:04:35;1.30;99.90
11617;DHT22;5864;52.998;9.068;2023-01-20T03:07:04;1.30;99.90
11617;DHT22;5864;52.998;9.068;2023-01-20T03:09:36;1.30;99.90
11617;DHT22;5864;52.998;9.068;2023-01-20T03:12:08;1.30;99.90
11617;DHT22;5864;52.998;9.068;2023-01-20T03:14:37;1.20;99.90
11617;DHT22;5864;52.998;9.068;2023-01-20T03:17:04;1.20;99.90
11617;DHT22;5864;52.998;9.068;2023-01-20T03:19:34;1.10;99.90
11617;DHT22;5864;52.998;9.068;2023-01-20T03:22:01;1.10;99.90
11617;DHT22;5864;52.998;9.068;2023-01-20T03:24:30;1.20;99.90
11617;DHT22;5864;52.998;9.068;2023-01-20T03:26:59;1.20;99.90
11617;DHT22;5864;52.998;9.068;2023-01-20T03:29:26;1.20;99.90
11617;DHT22;5864;52.998;9.068;2023-01-20T03:31:58;1.20;99.90
11617;DHT22;5864;52.998;9.068;2023-01-20T03:34:29;1.20;99.90
11617;DHT22;5864;52.998;9.068;2023-01-20T03:36:59;1.20;99.90
11617;DHT22;5864;52.998;9.068;2023-01-20T03:39:27;1.10;99.90
11617;DHT22;5864;52.998;9.068;2023-01-20T03:42:03;1.20;99.90
11617;DHT22;5864;52.998;9.068;2023-01-20T03:44:44;1.20;99.90
11617;DHT22;5864;52.998;9.068;2023-01-20T03:47:19;1.20;99.90
11617;DHT22;5864;52.998;9.068;2023-01-20T03:49:54;1.10;99.90
11617;DHT22;5864;52.998;9.068;2023-01-20T03:52:29;1.10;99.90
11617;DHT22;5864;52.998;9.068;2023-01-20T03:55:04;1.10;99.90
11617;DHT22;5864;52.998;9.068;2023-01-20T03:57:38;1.20;99.90
11617;DHT22;5864;52.998;9.068;2023-01-20T04:00:09;1.10;99.90
11617;DHT22;5864;52.998;9.068;2023-01-20T04:02:38;1.10;99.90
11617;DHT22;5864;52.998;9.068;2023-01-20T04:05:07;1.20;99.90
11617;DHT22;5864;52.998;9.068;2023-01-20T04:07:38;1.20;99.90
11617;DHT22;5864;52.998;9.068;2023-01-20T04:10:10;1.30;99.90
11617;DHT22;5864;52.998;9.068;2023-01-20T04:12:39;1.30;99.90
11617;DHT22;5864;52.998;9.068;2023-01-20T04:15:07;1.30;99.90
11617;DHT22;5864;52.998;9.068;2023-01-20T04:17:35;1.30;99.90
11617;DHT22;5864;52.998;9.068;2023-01-20T04:20:06;1.30;99.90
11617;DHT22;5864;52.998;9.068;2023-01-20T04:22:41;1.20;99.90
11617;DHT22;5864;52.998;9.068;2023-01-20T04:25:13;1.30;99.90
11617;DHT22;5864;52.998;9.068;2023-01-20T04:27:41;1.30;99.90
11617;DHT22;5864;52.998;9.068;2023-01-20T04:30:11;1.30;99.90
11617;DHT22;5864;52.998;9.068;2023-01-20T04:32:38;1.30;99.90
11617;DHT22;5864;52.998;9.068;2023-01-20T04:35:06;1.20;99.90
11617;DHT22;5864;52.998;9.068;2023-01-20T04:37:34;1.20;99.90
11617;DHT22;5864;52.998;9.068;2023-01-20T04:40:03;1.30;99.90
11617;DHT22;5864;52.998;9.068;2023-01-20T04:42:31;1.30;99.90
11617;DHT22;5864;52.998;9.068;2023-01-20T04:44:58;1.40;99.90
11617;DHT22;5864;52.998;9.068;2023-01-20T04:47:29;1.40;99.90
11617;DHT22;5864;52.998;9.068;2023-01-20T04:49:56;1.50;99.90
11617;DHT22;5864;52.998;9.068;2023-01-20T04:52:24;1.50;99.90
11617;DHT22;5864;52.998;9.068;2023-01-20T04:54:51;1.50;99.90
11617;DHT22;5864;52.998;9.068;2023-01-20T04:57:20;1.50;99.90
11617;DHT22;5864;52.998;9.068;2023-01-20T04:59:47;1.50;99.90
11617;DHT22;5864;52.998;9.068;2023-01-20T05:02:15;1.50;99.90
11617;DHT22;5864;52.998;9.068;2023-01-20T05:04:42;1.50;99.90
11617;DHT22;5864;52.998;9.068;2023-01-20T05:07:10;1.50;99.90
11617;DHT22;5864;52.998;9.068;2023-01-20T05:09:38;1.50;99.90
11617;DHT22;5864;52.998;9.068;2023-01-20T05:12:05;1.50;99.90
11617;DHT22;5864;52.998;9.068;2023-01-20T05:14:34;1.50;99.90
11617;DHT22;5864;52.998;9.068;2023-01-20T05:17:04;1.60;99.90
11617;DHT22;5864;52.998;9.068;2023-01-20T05:19:32;1.60;99.90
11617;DHT22;5864;52.998;9.068;2023-01-20T05:21:59;1.60;99.90
11617;DHT22;5864;52.998;9.068;2023-01-20T05:24:27;1.50;99.90
11617;DHT22;5864;52.998;9.068;2023-01-20T05:26:58;1.40;99.90
11617;DHT22;5864;52.998;9.068;2023-01-20T05:29:26;1.50;99.90
11617;DHT22;5864;52.998;9.068;2023-01-20T05:31:55;1.50;99.90
11617;DHT22;5864;52.998;9.068;2023-01-20T05:34:23;1.50;99.90
11617;DHT22;5864;52.998;9.068;2023-01-20T05:36:53;1.50;99.90
11617;DHT22;5864;52.998;9.068;2023-01-20T05:39:21;1.50;99.90
11617;DHT22;5864;52.998;9.068;2023-01-20T05:41:49;1.50;99.90
11617;DHT22;5864;52.998;9.068;2023-01-20T05:44:19;1.60;99.90
11617;DHT22;5864;52.998;9.068;2023-01-20T05:46:47;1.50;99.90
11617;DHT22;5864;52.998;9.068;2023-01-20T05:49:16;1.50;99.90
11617;DHT22;5864;52.998;9.068;2023-01-20T05:51:43;1.40;99.90
11617;DHT22;5864;52.998;9.068;2023-01-20T05:54:11;1.50;99.90
11617;DHT22;5864;52.998;9.068;2023-01-20T05:56:38;1.50;99.90
11617;DHT22;5864;52.998;9.068;2023-01-20T05:59:06;1.40;99.90
11617;DHT22;5864;52.998;9.068;2023-01-20T06:01:34;1.40;99.90
11617;DHT22;5864;52.998;9.068;2023-01-20T06:04:02;1.50;99.90
11617;DHT22;5864;52.998;9.068;2023-01-20T06:06:31;1.50;99.90
11617;DHT22;5864;52.998;9.068;2023-01-20T06:08:59;1.50;99.90
11617;DHT22;5864;52.998;9.068;2023-01-20T06:11:26;1.50;99.90
11617;DHT22;5864;52.998;9.068;2023-01-20T06:13:54;1.60;99.90
11617;DHT22;5864;52.998;9.068;2023-01-20T06:16:21;1.60;99.90
11617;DHT22;5864;52.998;9.068;2023-01-20T06:18:49;1.60;99.90
11617;DHT22;5864;52.998;9.068;2023-01-20T06:21:16;1.60;99.90
11617;DHT22;5864;52.998;9.068;2023-01-20T06:23:46;1.60;99.90
11617;DHT22;5864;52.998;9.068;2023-01-20T06:26:13;1.60;99.90
11617;DHT22;5864;52.998;9.068;2023-01-20T06:28:41;1.70;99.90
11617;DHT22;5864;52.998;9.068;2023-01-20T06:31:11;1.70;99.90
11617;DHT22;5864;52.998;9.068;2023-01-20T06:33:39;1.70;99.90
11617;DHT22;5864;52.998;9.068;2023-01-20T06:36:08;1.70;99.90
11617;DHT22;5864;52.998;9.068;2023-01-20T06:38:38;1.70;99.90
11617;DHT22;5864;52.998;9.068;2023-01-20T06:41:08;1.80;99.90
11617;DHT22;5864;52.998;9.068;2023-01-20T06:43:36;1.80;99.90
11617;DHT22;5864;52.998;9.068;2023-01-20T06:46:08;1.60;99.90
11617;DHT22;5864;52.998;9.068;2023-01-20T06:48:36;1.70;99.90
11617;DHT22;5864;52.998;9.068;2023-01-20T06:51:05;1.70;99.90
11617;DHT22;5864;52.998;9.068;2023-01-20T06:53:33;1.70;99.90
11617;DHT22;5864;52.998;9.068;2023-01-20T06:56:01;1.80;99.90
11617;DHT22;5864;52.998;9.068;2023-01-20T06:58:31;1.80;99.90
11617;DHT22;5864;52.998;9.068;2023-01-20T07:01:04;1.70;99.90
11617;DHT22;5864;52.998;9.068;2023-01-20T07:03:33;1.70;99.90
11617;DHT22;5864;52.998;9.068;2023-01-20T07:06:03;1.70;99.90
11617;DHT22;5864;52.998;9.068;2023-01-20T07:08:30;1.70;99.90
11617;DHT22;5864;52.998;9.068;2023-01-20T07:10:58;1.70;99.90
11617;DHT22;5864;52.998;9.068;2023-01-20T07:13:25;1.70;99.90
11617;DHT22;5864;52.998;9.068;2023-01-20T07:15:54;1.70;99.90
11617;DHT22;5864;52.998;9.068;2023-01-20T07:18:22;1.70;99.90
11617;DHT22;5864;52.998;9.068;2023-01-20T07:20:52;1.70;99.90
11617;DHT22;5864;52.998;9.068;2023-01-20T07:23:20;1.60;99.90
11617;DHT22;5864;52.998;9.068;2023-01-20T07:25:56;1.60;99.90
11617;DHT22;5864;52.998;9.068;2023-01-20T07:28:23;1.60;99.90
11617;DHT22;5864;52.998;9.068;2023-01-20T07:30:51;1.60;99.90
11617;DHT22;5864;52.998;9.068;2023-01-20T07:33:20;1.60;99.90
11617;DHT22;5864;52.998;9.068;2023-01-20T07:35:50;1.50;99.90
11617;DHT22;5864;52.998;9.068;2023-01-20T07:38:19;1.40;99.90
11617;DHT22;5864;52.998;9.068;2023-01-20T07:40:47;1.50;99.90
11617;DHT22;5864;52.998;9.068;2023-01-20T07:43:14;1.40;99.90
11617;DHT22;5864;52.998;9.068;2023-01-20T07:45:42;1.50;99.90
11617;DHT22;5864;52.998;9.068;2023-01-20T07:48:09;1.50;99.90
11617;DHT22;5864;52.998;9.068;2023-01-20T07:50:38;1.50;99.90
11617;DHT22;5864;52.998;9.068;2023-01-20T07:53:06;1.50;99.90
11617;DHT22;5864;52.998;9.068;2023-01-20T07:55:33;1.50;99.90
11617;DHT22;5864;52.998;9.068;2023-01-20T07:58:01;1.50;99.90
11617;DHT22;5864;52.998;9.068;2023-01-20T08:00:30;1.60;99.90
11617;DHT22;5864;52.998;9.068;2023-01-20T08:02:57;1.60;99.90
11617;DHT22;5864;52.998;9.068;2023-01-20T08:05:25;1.60;99.90
11617;DHT22;5864;52.998;9.068;2023-01-20T08:07:54;1.60;99.90
11617;DHT22;5864;52.998;9.068;2023-01-20T08:10:21;1.60;99.90
11617;DHT22;5864;52.998;9.068;2023-01-20T08:12:49;1.60;99.90
11617;DHT22;5864;52.998;9.068;2023-01-20T08:15:16;1.60;99.90
11617;DHT22;5864;52.998;9.068;2023-01-20T08:17:44;1.60;99.90
11617;DHT22;5864;52.998;9.068;2023-01-20T08:20:12;1.60;99.90
11617;DHT22;5864;52.998;9.068;2023-01-20T08:22:39;1.70;99.90
11617;DHT22;5864;52.998;9.068;2023-01-20T08:25:12;1.70;99.90
11617;DHT22;5864;52.998;9.068;2023-01-20T08:27:40;1.80;99.90
11617;DHT22;5864;52.998;9.068;2023-01-20T08:30:09;1.80;99.90
11617;DHT22;5864;52.998;9.068;2023-01-20T08:32:36;1.80;99.90
11617;DHT22;5864;52.998;9.068;2023-01-20T08:35:04;1.80;99.90
11617;DHT22;5864;52.998;9.068;2023-01-20T08:37:34;1.80;99.90
11617;DHT22;5864;52.998;9.068;2023-01-20T08:40:03;1.80;99.90
11617;DHT22;5864;52.998;9.068;2023-01-20T08:42:32;1.70;99.90
11617;DHT22;5864;52.998;9.068;2023-01-20T08:45:00;1.80;99.90
11617;DHT22;5864;52.998;9.068;2023-01-20T08:47:27;1.80;99.90
11617;DHT22;5864;52.998;9.068;2023-01-20T08:49:55;1.80;99.90
11617;DHT22;5864;52.998;9.068;2023-01-20T08:52:22;1.90;99.90
11617;DHT22;5864;52.998;9.068;2023-01-20T08:54:51;1.80;99.90
11617;DHT22;5864;52.998;9.068;2023-01-20T08:57:19;2.00;99.90
11617;DHT22;5864;52.998;9.068;2023-01-20T08:59:48;2.10;99.90
11617;DHT22;5864;52.998;9.068;2023-01-20T09:02:15;2.10;99.90
11617;DHT22;5864;52.998;9.068;2023-01-20T09:04:43;2.10;99.90
11617;DHT22;5864;52.998;9.068;2023-01-20T09:07:11;2.10;99.90
11617;DHT22;5864;52.998;9.068;2023-01-20T09:09:38;2.20;99.90
11617;DHT22;5864;52.998;9.068;2023-01-20T09:12:06;2.20;99.90
11617;DHT22;5864;52.998;9.068;2023-01-20T09:14:34;2.20;99.90
11617;DHT22;5864;52.998;9.068;2023-01-20T09:17:03;2.30;99.90
11617;DHT22;5864;52.998;9.068;2023-01-20T09:19:30;2.30;99.90
11617;DHT22;5864;52.998;9.068;2023-01-20T09:21:58;2.30;99.90
11617;DHT22;5864;52.998;9.068;2023-01-20T09:24:25;2.40;99.90
11617;DHT22;5864;52.998;9.068;2023-01-20T09:26:53;2.30;99.90
11617;DHT22;5864;52.998;9.068;2023-01-20T09:29:25;2.40;99.90
11617;DHT22;5864;52.998;9.068;2023-01-20T09:31:54;2.40;99.90
11617;DHT22;5864;52.998;9.068;2023-01-20T09:34:26;2.50;99.90
11617;DHT22;5864;52.998;9.068;2023-01-20T09:36:56;2.70;99.90
11617;DHT22;5864;52.998;9.068;2023-01-20T09:39:44;3.60;99.90
11617;DHT22;5864;52.998;9.068;2023-01-20T09:42:36;4.30;99.90
11617;DHT22;5864;52.998;9.068;2023-01-20T09:45:30;5.10;99.90
11617;DHT22;5864;52.998;9.068;2023-01-20T09:48:04;6.10;99.90
11617;DHT22;5864;52.998;9.068;2023-01-20T09:50:44;6.50;20.40
11617;DHT22;5864;52.998;9.068;2023-01-20T09:53:38;6.60;15.10
11617;DHT22;5864;52.998;9.068;2023-01-20T09:56:16;6.50;15.40
11617;DHT22;5864;52.998;9.068;2023-01-20T09:58:50;6.20;34.40
11617;DHT22;5864;52.998;9.068;2023-01-20T10:01:23;6.50;23.40
11617;DHT22;5864;52.998;9.068;2023-01-20T10:04:00;6.10;46.70
11617;DHT22;5864;52.998;9.068;2023-01-20T10:06:33;6.10;54.50
11617;DHT22;5864;52.998;9.068;2023-01-20T10:09:08;6.00;56.90
11617;DHT22;5864;52.998;9.068;2023-01-20T10:11:40;5.80;63.40
11617;DHT22;5864;52.998;9.068;2023-01-20T10:14:14;5.90;54.50
11617;DHT22;5864;52.998;9.068;2023-01-20T10:16:49;5.80;60.30
11617;DHT22;5864;52.998;9.068;2023-01-20T10:19:22;6.10;63.80
11617;DHT22;5864;52.998;9.068;2023-01-20T10:22:00;6.30;51.60
11617;DHT22;5864;52.998;9.068;2023-01-20T10:24:32;6.60;53.00
11617;DHT22;5864;52.998;9.068;2023-01-20T10:27:03;6.90;37.30
11617;DHT22;5864;52.998;9.068;2023-01-20T10:29:34;7.10;20.90
11617;DHT22;5864;52.998;9.068;2023-01-20T10:32:05;6.90;16.30
11617;DHT22;5864;52.998;9.068;2023-01-20T10:34:39;6.50;31.80
11617;DHT22;5864;52.998;9.068;2023-01-20T10:37:10;6.40;39.80
11617;DHT22;5864;52.998;9.068;2023-01-20T10:39:42;6.30;48.10
11617;DHT22;5864;52.998;9.068;2023-01-20T10:42:12;6.40;39.10
11617;DHT22;5864;52.998;9.068;2023-01-20T10:44:41;6.20;52.70
11617;DHT22;5864;52.998;9.068;2023-01-20T10:47:16;6.00;48.10
11617;DHT22;5864;52.998;9.068;2023-01-20T10:50:15;5.90;39.40
11617;DHT22;5864;52.998;9.068;2023-01-20T10:53:09;5.80;55.10
11617;DHT22;5864;52.998;9.068;2023-01-20T10:55:50;5.80;62.50
11617;DHT22;5864;52.998;9.068;2023-01-20T10:58:22;5.70;52.60
11617;DHT22;5864;52.998;9.068;2023-01-20T11:00:51;5.60;55.30
11617;DHT22;5864;52.998;9.068;2023-01-20T11:03:20;5.40;56.40
11617;DHT22;5864;52.998;9.068;2023-01-20T11:05:50;5.40;48.70
11617;DHT22;5864;52.998;9.068;2023-01-20T11:08:22;5.30;47.10
11617;DHT22;5864;52.998;9.068;2023-01-20T11:10:53;5.20;49.60
11617;DHT22;5864;52.998;9.068;2023-01-20T11:13:21;5.10;70.90
11617;DHT22;5864;52.998;9.068;2023-01-20T11:15:50;5.00;69.50
11617;DHT22;5864;52.998;9.068;2023-01-20T11:18:23;5.00;53.60
11617;DHT22;5864;52.998;9.068;2023-01-20T11:20:52;4.90;64.40
11617;DHT22;5864;52.998;9.068;2023-01-20T11:23:25;4.90;50.90
11617;DHT22;5864;52.998;9.068;2023-01-20T11:25:59;4.80;58.30
11617;DHT22;5864;52.998;9.068;2023-01-20T11:28:31;4.80;38.70
11617;DHT22;5864;52.998;9.068;2023-01-20T11:31:03;4.70;58.30
11617;DHT22;5864;52.998;9.068;2023-01-20T11:33:31;4.40;70.60
11617;DHT22;5864;52.998;9.068;2023-01-20T11:36:00;4.70;66.00
11617;DHT22;5864;52.998;9.068;2023-01-20T11:38:31;4.70;56.10
11617;DHT22;5864;52.998;9.068;2023-01-20T11:40:59;4.60;48.50
11617;DHT22;5864;52.998;9.068;2023-01-20T11:43:28;4.50;45.30
11617;DHT22;5864;52.998;9.068;2023-01-20T11:46:19;4.60;57.10
11617;DHT22;5864;52.998;9.068;2023-01-20T11:48:47;4.50;50.20
11617;DHT22;5864;52.998;9.068;2023-01-20T11:51:20;4.50;57.10
11617;DHT22;5864;52.998;9.068;2023-01-20T11:54:05;4.50;57.70
11617;DHT22;5864;52.998;9.068;2023-01-20T11:56:38;4.50;51.20
11617;DHT22;5864;52.998;9.068;2023-01-20T11:59:18;4.60;57.30
11617;DHT22;5864;52.998;9.068;2023-01-20T12:01:54;4.50;65.50
11617;DHT22;5864;52.998;9.068;2023-01-20T12:07:29;4.60;81.90
11617;DHT22;5864;52.998;9.068;2023-01-20T12:10:16;4.60;84.20
11617;DHT22;5864;52.998;9.068;2023-01-20T12:12:55;4.60;90.00
11617;DHT22;5864;52.998;9.068;2023-01-20T12:15:26;4.70;75.70
11617;DHT22;5864;52.998;9.068;2023-01-20T12:18:08;4.70;67.80
11617;DHT22;5864;52.998;9.068;2023-01-20T12:20:44;4.60;69.70
11617;DHT22;5864;52.998;9.068;2023-01-20T12:23:16;4.60;74.40
11617;DHT22;5864;52.998;9.068;2023-01-20T12:25:53;4.60;79.30
11617;DHT22;5864;52.998;9.068;2023-01-20T12:28:24;4.60;72.20
11617;DHT22;5864;52.998;9.068;2023-01-20T12:31:07;4.60;81.30
11617;DHT22;5864;52.998;9.068;2023-01-20T12:34:03;4.70;71.00
11617;DHT22;5864;52.998;9.068;2023-01-20T12:37:02;4.70;54.90
11617;DHT22;5864;52.998;9.068;2023-01-20T12:39:51;4.70;70.50
11617;DHT22;5864;52.998;9.068;2023-01-20T12:42:35;4.70;62.50
11617;DHT22;5864;52.998;9.068;2023-01-20T12:45:18;4.50;62.30
11617;DHT22;5864;52.998;9.068;2023-01-20T12:47:59;4.50;70.50
11617;DHT22;5864;52.998;9.068;2023-01-20T12:50:35;4.40;54.20
11617;DHT22;5864;52.998;9.068;2023-01-20T12:53:19;4.40;56.70
11617;DHT22;5864;52.998;9.068;2023-01-20T12:56:00;4.30;85.30
11617;DHT22;5864;52.998;9.068;2023-01-20T12:58:41;4.40;77.40
11617;DHT22;5864;52.998;9.068;2023-01-20T13:01:34;4.40;84.90
11617;DHT22;5864;52.998;9.068;2023-01-20T13:04:35;4.40;83.10
11617;DHT22;5864;52.998;9.068;2023-01-20T13:07:18;4.50;92.00
11617;DHT22;5864;52.998;9.068;2023-01-20T13:10:02;4.50;90.40
11617;DHT22;5864;52.998;9.068;2023-01-20T13:12:40;4.50;82.90
11617;DHT22;5864;52.998;9.068;2023-01-20T13:15:18;4.50;85.20
11617;DHT22;5864;52.998;9.068;2023-01-20T13:17:59;4.50;76.60
11617;DHT22;5864;52.998;9.068;2023-01-20T13:20:29;4.50;76.30
11617;DHT22;5864;52.998;9.068;2023-01-20T13:23:02;4.50;86.10
11617;DHT22;5864;52.998;9.068;2023-01-20T13:25:31;4.40;85.30
11617;DHT22;5864;52.998;9.068;2023-01-20T13:27:59;4.40;89.60
11617;DHT22;5864;52.998;9.068;2023-01-20T13:30:43;4.30;79.20
11617;DHT22;5864;52.998;9.068;2023-01-20T13:33:25;4.30;40.90
11617;DHT22;5864;52.998;9.068;2023-01-20T13:35:55;4.30;46.50
11617;DHT22;5864;52.998;9.068;2023-01-20T13:38:25;4.30;52.70
11617;DHT22;5864;52.998;9.068;2023-01-20T13:40:57;4.30;35.70
11617;DHT22;5864;52.998;9.068;2023-01-20T13:43:36;4.30;42.70
11617;DHT22;5864;52.998;9.068;2023-01-20T13:46:45;4.10;21.50
11617;DHT22;5864;52.998;9.068;2023-01-20T13:49:23;4.10;24.90
11617;DHT22;5864;52.998;9.068;2023-01-20T13:51:55;3.90;36.30
11617;DHT22;5864;52.998;9.068;2023-01-20T13:54:53;3.90;42.60
11617;DHT22;5864;52.998;9.068;2023-01-20T13:57:36;3.90;50.30
11617;DHT22;5864;52.998;9.068;2023-01-20T14:00:15;4.00;58.40
11617;DHT22;5864;52.998;9.068;2023-01-20T14:02:45;3.90;68.60
11617;DHT22;5864;52.998;9.068;2023-01-20T14:05:30;4.00;61.40
11617;DHT22;5864;52.998;9.068;2023-01-20T14:07:58;4.00;63.60
11617;DHT22;5864;52.998;9.068;2023-01-20T14:10:27;4.00;59.20
11617;DHT22;5864;52.998;9.068;2023-01-20T14:12:54;4.10;64.40
11617;DHT22;5864;52.998;9.068;2023-01-20T14:15:33;4.10;74.10
11617;DHT22;5864;52.998;9.068;2023-01-20T14:18:04;4.10;72.20
11617;DHT22;5864;52.998;9.068;2023-01-20T14:20:37;4.00;58.50
11617;DHT22;5864;52.998;9.068;2023-01-20T14:23:35;3.90;68.30
11617;DHT22;5864;52.998;9.068;2023-01-20T14:26:06;3.80;79.50
11617;DHT22;5864;52.998;9.068;2023-01-20T14:28:43;3.80;71.50
11617;DHT22;5864;52.998;9.068;2023-01-20T14:31:31;3.90;75.70
11617;DHT22;5864;52.998;9.068;2023-01-20T14:34:22;3.90;55.80
11617;DHT22;5864;52.998;9.068;2023-01-20T14:36:50;3.90;39.50
11617;DHT22;5864;52.998;9.068;2023-01-20T14:39:20;3.80;47.70
11617;DHT22;5864;52.998;9.068;2023-01-20T14:41:49;3.60;53.10
11617;DHT22;5864;52.998;9.068;2023-01-20T14:44:19;3.70;38.40
11617;DHT22;5864;52.998;9.068;2023-01-20T14:46:48;3.70;40.70
11617;DHT22;5864;52.998;9.068;2023-01-20T14:49:19;3.80;30.40
11617;DHT22;5864;52.998;9.068;2023-01-20T14:51:49;3.70;23.50
11617;DHT22;5864;52.998;9.068;2023-01-20T14:54:28;3.70;16.90
11617;DHT22;5864;52.998;9.068;2023-01-20T14:56:56;3.70;16.20
11617;DHT22;5864;52.998;9.068;2023-01-20T14:59:24;3.70;23.50
11617;DHT22;5864;52.998;9.068;2023-01-20T15:01:53;3.70;29.00
11617;DHT22;5864;52.998;9.068;2023-01-20T15:04:23;3.70;41.90
11617;DHT22;5864;52.998;9.068;2023-01-20T15:06:52;3.80;45.10
11617;DHT22;5864;52.998;9.068;2023-01-20T15:09:29;3.70;43.70
11617;DHT22;5864;52.998;9.068;2023-01-20T15:12:32;3.70;44.00
11617;DHT22;5864;52.998;9.068;2023-01-20T15:15:16;3.70;43.40
11617;DHT22;5864;52.998;9.068;2023-01-20T15:18:21;3.70;47.80
11617;DHT22;5864;52.998;9.068;2023-01-20T15:20:53;3.70;57.80
11617;DHT22;5864;52.998;9.068;2023-01-20T15:23:28;3.70;59.60
11617;DHT22;5864;52.998;9.068;2023-01-20T15:26:06;3.60;59.30
11617;DHT22;5864;52.998;9.068;2023-01-20T15:28:39;3.60;64.50
11617;DHT22;5864;52.998;9.068;2023-01-20T15:31:12;3.70;61.10
11617;DHT22;5864;52.998;9.068;2023-01-20T15:33:40;3.70;57.70
11617;DHT22;5864;52.998;9.068;2023-01-20T15:36:20;3.60;53.70
11617;DHT22;5864;52.998;9.068;2023-01-20T15:38:48;3.50;56.30
11617;DHT22;5864;52.998;9.068;2023-01-20T15:41:16;3.50;66.90
11617;DHT22;5864;52.998;9.068;2023-01-20T15:43:43;3.40;71.70
11617;DHT22;5864;52.998;9.068;2023-01-20T15:46:12;3.30;77.90
11617;DHT22;5864;52.998;9.068;2023-01-20T15:48:40;3.30;88.20
11617;DHT22;5864;52.998;9.068;2023-01-20T15:51:11;3.20;89.50
11617;DHT22;5864;52.998;9.068;2023-01-20T15:53:41;3.20;91.80
11617;DHT22;5864;52.998;9.068;2023-01-20T15:56:14;3.10;94.10
11617;DHT22;5864;52.998;9.068;2023-01-20T15:58:42;3.10;95.10
11617;DHT22;5864;52.998;9.068;2023-01-20T16:01:13;2.90;92.70
11617;DHT22;5864;52.998;9.068;2023-01-20T16:03:41;2.80;99.90
11617;DHT22;5864;52.998;9.068;2023-01-20T16:06:11;2.70;99.90
11617;DHT22;5864;52.998;9.068;2023-01-20T16:08:41;2.60;99.90
11617;DHT22;5864;52.998;9.068;2023-01-20T16:11:11;2.60;99.90
11617;DHT22;5864;52.998;9.068;2023-01-20T16:13:38;2.50;99.90
11617;DHT22;5864;52.998;9.068;2023-01-20T16:16:10;2.40;99.90
11617;DHT22;5864;52.998;9.068;2023-01-20T16:18:39;2.30;99.90
11617;DHT22;5864;52.998;9.068;2023-01-20T16:21:09;2.30;99.90
11617;DHT22;5864;52.998;9.068;2023-01-20T16:23:37;2.20;99.90
11617;DHT22;5864;52.998;9.068;2023-01-20T16:26:17;2.20;99.90
11617;DHT22;5864;52.998;9.068;2023-01-20T16:28:46;2.10;99.90
11617;DHT22;5864;52.998;9.068;2023-01-20T16:31:13;2.10;99.90
11617;DHT22;5864;52.998;9.068;2023-01-20T16:33:41;2.00;99.90
11617;DHT22;5864;52.998;9.068;2023-01-20T16:36:11;1.90;99.90
11617;DHT22;5864;52.998;9.068;2023-01-20T16:38:39;1.90;99.90
11617;DHT22;5864;52.998;9.068;2023-01-20T16:41:14;1.90;99.90
11617;DHT22;5864;52.998;9.068;2023-01-20T16:43:42;1.90;99.90